Briefing drone pour Thones

Rechercher une autre localisation

Conditions de vol :


Nous sommes le : Samedi 23 octobre 2021
Il est 17:32 UTC (19:32 LT)

Lever de soleil : 05:36 UTC (07:36 LT)
Coucher de soleil : 17:01 UTC (19:01 LT)

Météo

L'essentiel des conditions de vol

VIGILANCE MÉTÉO FRANCE - Haute-Savoie (74)
Pas de vigilances particulieres
METAR de LFLP
LFLP 231730Z AUTO 35004KT 320V040 CAVOK 09/04 Q1025 NOSIG

Date d'émission: 23/10/2021
Heure d'émission: 17:30 UTC
Vent: 350° (variable du 320° au 040°) pour 4 KT (7 km/h)
Visibilité horizontale: > 10 km
Plafond : Plafond et visibilité OK (CAVOK)
Température: 9 °C
Point de rosée: 4 °C
Humidité: 71%
Pression (QNH): 1025 hPa
Conditions: Pas de changement dans les 2 heures (NOSIG)
TAF de LFLP
LFLP 231400Z 2315/2415 VRB03KT CAVOK

Conditions prévues :

Heure d'émission : Bulletin éffectué le 23 à 15:00 UTC
Prévision : Valide du 23 a 15:00 UTC au 24 a 15:00 UTC
Vent : Variable pour 3 KT (6 km/h)
Visibilité : > 10 km
WEBCAM POUR THONES

Réglementation

Voler en sécurité

CARTES AERONAUTIQUE 1/500.000
CARTES VAC (LFLP)
SUP AIP




Chargement des AIP...
NOTAM (THONES + Terrain à proximité / FIR )




Chargement des NOTAMS...
CONTACT PREFECTURE 74


Avertissement : Les données mises à disposition sont indicatives. Oxygène Drone ne pourra être tenu responsable de dégâts causés aux biens et aux personnes.